• Join FlightAware (Why Join?)
  • Login
  • US Flag 
05:18AM EDT


 

Airport Tracker/Info


-or-


 

Live Flight TrackerFlight Track Log ✈ N39RC ✈ 19-Jul-2013 ✈ KRDU - KHPN

Flight Track Log - Related Links

Times and Time Zones

All times are in EDT time to prevent confusion due to time zone crossing. See the N39RC flight status page for this flight to view local times or setup timezone preferences in your user account.

Time Position Orientation Groundspeed Altitude Reporting Facility
EDT Latitude Longitude Course Direction KTS MPH feet Rate Location/Type
03:07PM 35.8583 -78.8058 189° South 178 205 1,400  Level Washington Center
03:08PM 35.7744 -78.8228 189° South 244 281 5,500 2,700 Climbing Washington Center
03:09PM 35.6989 -78.8353 188° South 268 308 8,000 2,280 Climbing Washington Center
03:10PM 35.6539 -78.8078 154° Southeast 266 306 9,600 1,620 Climbing Washington Center
03:11PM 35.6689 -78.7139 79° East 276 318 10,900 900 Climbing Washington Center
03:12PM 35.7008 -78.6103 69° East 287 330 11,400 1,200 Climbing Washington Center
03:13PM 35.7325 -78.5064 69° East 305 351 13,300 2,040 Climbing Washington Center
03:14PM 35.7642 -78.4000 70° East 319 367 15,600 2,280 Climbing Washington Center
03:15PM 35.7981 -78.2939 68° East 324 373 17,900 2,160 Climbing Washington Center
03:16PM 35.8297 -78.1872 70° East 324 373 20,000 1,920 Climbing Washington Center
03:17PM 35.8653 -78.0756 69° East 334 384 21,900 1,860 Climbing Washington Center
03:18PM 35.9011 -77.9589 69° East 348 400 23,800 1,920 Climbing Washington Center
03:19PM 35.9367 -77.8419 69° East 353 406 25,700 1,560 Climbing Washington Center
03:20PM 35.9722 -77.7222 70° East 360 414 27,000 840 Climbing Washington Center
03:21PM 36.0367 -77.6136 54° Northeast 372 428 27,500 840 Climbing Washington Center
03:22PM 36.1053 -77.4997 53° Northeast 392 451 28,700 1,020 Climbing Washington Center
03:23PM 36.1589 -77.4161 52° Northeast 397 457 29,600 1,020 Climbing Washington Center
03:24PM 36.2294 -77.2942 54° Northeast 397 457 30,800 1,140 Climbing Washington Center
03:25PM 36.2978 -77.1872 52° Northeast 402 463 32,000 1,260 Climbing Washington Center
03:26PM 36.3725 -77.0622 53° Northeast 402 463 33,300 1,200 Climbing Washington Center
03:27PM 36.4256 -76.9781 52° Northeast 402 463 34,400 780 Climbing Washington Center
03:28PM 36.4978 -76.8528 54° Northeast 402 463 35,000 300 Climbing Washington Center
03:29PM 36.5783 -76.7247 52° Northeast 407 468 35,000 1,320 Level Washington Center
03:31PM 36.7264 -76.4886 52° Northeast 422 486 39,000  Climbing Washington Center
03:32PM 36.8250 -76.4144 31° Northeast 417 480 35,000 -2,040 Descending Washington Center
03:33PM 36.9256 -76.3375 31° Northeast 412 474 35,000  Level Washington Center
03:34PM 37.0261 -76.2631 31° Northeast 412 474 35,000  Level Washington Center
03:35PM 37.1247 -76.1858 32° Northeast 417 480 35,000  Level Washington Center
03:36PM 37.2231 -76.1267 26° Northeast 412 474 35,000  Level Washington Center
03:37PM 37.3256 -76.0567 29° Northeast 417 480 35,000 60 Level Washington Center
03:38PM 37.4258 -75.9867 29° Northeast 412 474 35,200 660 Climbing Washington Center
03:39PM 37.5261 -75.9164 29° Northeast 412 474 36,400 900 Climbing Washington Center
03:40PM 37.6244 -75.8489 29° Northeast 407 468 37,000 300 Climbing Washington Center
03:41PM 37.7267 -75.7808 28° Northeast 407 468 37,000  Level Washington Center
03:42PM 37.8311 -75.7047 30° Northeast 414 476 37,000  Level Washington Center
03:43PM 37.9375 -75.6339 28° Northeast 421 484 37,000  Level Washington Center
03:44PM 38.0439 -75.5603 29° Northeast 426 490 37,000  Level Washington Center
03:45PM 38.1564 -75.4703 32° Northeast 426 490 37,000  Level Washington Center
03:46PM 38.2542 -75.4119 25° Northeast 421 484 37,000  Level Washington Center
03:47PM 38.3731 -75.3561 20° North 410 472 37,000  Level Washington Center
03:48PM 38.4919 -75.3875 348° North 400 460 37,000  Level Washington Center
03:49PM 38.6086 -75.3925 358° North 414 476 37,000  Level Washington Center
03:50PM 38.7067 -75.3044 35° Northeast 401 461 37,000  Level Washington Center
03:51PM 38.7897 -75.1922 46° Northeast 406 467 37,000  Level Washington Center
03:52PM 38.8664 -75.0958 44° Northeast 415 478 37,000 -180 Level Washington Center
03:53PM 38.9514 -74.9858 45° Northeast 420 483 36,700 -900 Descending Washington Center
03:54PM 39.0361 -74.8808 44° Northeast 420 483 35,200 -1,800 Descending Washington Center
03:55PM 39.1231 -74.7731 44° Northeast 420 483 33,200 -2,040 Descending Washington Center
03:56PM 39.2142 -74.6781 39° Northeast 420 483 31,200 -1,860 Descending Washington Center
03:58PM 39.4328 -74.4533 38° Northeast 419 482 26,800 -1,800 Descending New York Center
03:59PM 39.5147 -74.3633 40° Northeast 398 458 25,000 -1,380 Descending New York Center
04:00PM 39.5989 -74.2761 39° Northeast 387 445 24,000 -540 Descending New York Center
04:01PM 39.6764 -74.1936 39° Northeast 369 425 24,000 -240 Level New York Center
04:02PM 39.7558 -74.1111 39° Northeast 364 419 23,600 -840 Descending New York Center
04:03PM 39.8439 -74.0206 38° Northeast 358 412 22,400 -1,140 Descending New York Center
04:06PM 40.0119 -73.8353 40° Northeast 362 417 20,000 -1,080 Descending Boston Center
04:07PM 40.0922 -73.7528 38° Northeast 362 417 19,000 -1,080 Descending Boston Center
04:08PM 40.1806 -73.6594 39° Northeast 357 411 17,900 -1,020 Descending Boston Center
04:09PM 40.2567 -73.5794 39° Northeast 357 411 17,000 -540 Descending Boston Center
04:10PM 40.3367 -73.4908 40° Northeast 357 411 16,900 -60 Descending Boston Center
04:11PM 40.4331 -73.4353 24° Northeast 364 419 16,900 -180 Level Boston Center
04:12PM 40.5292 -73.4011 15° North 359 413 16,600 -600 Descending Boston Center
04:13PM 40.6169 -73.3697 15° North 338 389 15,700 -900 Descending Boston Center
04:14PM 40.7025 -73.3381 16° North 325 374 14,900 -420 Descending Boston Center
04:15PM 40.8000 -73.2667 29° Northeast 329 379 14,800 -540 Descending New York TRACON
04:16PM 40.8500 -73.1833 52° Northeast 335 386 13,700 -1,260 Descending New York TRACON
04:17PM 40.9000 -73.0833 56° Northeast 321 369 12,300 -1,800 Descending New York TRACON
04:18PM 40.9667 -73.0333 30° Northeast 272 313 10,100 -2,280 Descending New York TRACON
04:19PM 41.0333 -73.0333 360° North 258 297 7,800 -1,560 Descending New York TRACON
04:20PM 41.0667 -73.1000 304° West 208 239 7,000 -420 Descending New York TRACON
04:21PM 41.1000 -73.1667 304° West 203 234 7,000 -300 Level New York TRACON
04:22PM 41.1167 -73.2333 288° West 205 236 6,500 -1,320 Descending New York TRACON
04:23PM 41.1333 -73.3000 288° West 211 243 4,400 -1,320 Descending New York TRACON
04:24PM 41.1500 -73.3833 285° West 202 232 3,900 -840 Descending New York TRACON
04:25PM 41.1500 -73.4500 270° West 190 219 2,800 -1,020 Descending New York TRACON
04:26PM 41.1167 -73.5000 229° Southwest 211 243 1,900 -420 Descending New York TRACON
04:27PM 41.0667 -73.5167 194° South 183 211 2,000 60 Climbing New York TRACON
04:28PM 41.0167 -73.5333 194° South 183 211 2,100 -60 Climbing New York TRACON
04:29PM 41.0167 -73.6000 270° West 182 209 1,900 -480 Descending New York TRACON
04:30PM 41.0167 -73.6500 270° West 157 181 1,200 -600 Descending New York TRACON
04:31PM 41.0500 -73.7000 311° West 140 161 700 -540 Descending New York TRACON
04:33PM 41.0667 -73.7000 236° Southwest  Level FlightAware Approximate
04:40PM 41.0669 -73.7076 236° Southwest  Level Estimated